This is the latest recevied weather packets stored in our database for station/object AB8KN-2. If no packets are shown the sender has not sent any weather packets the latest 10 day(s).
| Time | Temp. | Humidity | Pressure | Rain* | Wind** | Luminosity | Snow |
|---|---|---|---|---|---|---|---|
| 1777436417 | 14.44° C | 83% | 1012 hPa | 0 mm | - | 0 W/m² | - |
| 1777432218 | 15.56° C | 80% | 1013.3 hPa | 0 mm | - | 0 W/m² | - |
| 1777431016 | 15.56° C | 79% | 1013.3 hPa | 0 mm | - | 0 W/m² | - |
| 1777422638 | 19.44° C | 68% | 1012.8 hPa | 0 mm | - | 2 W/m² | - |
| 1777420818 | 20° C | 65% | 1012.4 hPa | 0 mm | - | 17 W/m² | - |
| 1777419016 | 21.67° C | 60% | 1011.9 hPa | 0 mm | - | 45 W/m² | - |
| 1777417216 | 21.67° C | 60% | 1012.3 hPa | 0 mm | - | 177 W/m² | - |
| 1777414237 | 22.78° C | 54% | 1012.7 hPa | 0 mm | - | 100 W/m² | - |
| 1777411818 | 23.89° C | 53% | 1012.3 hPa | 0 mm | - | 392 W/m² | - |
| 1777411218 | 23.89° C | 55% | 1012.5 hPa | 0 mm | - | 329 W/m² | - |
| 1777410638 | 23.89° C | 54% | 1012.8 hPa | 0 mm | - | 347 W/m² | - |
| 1777410018 | 23.33° C | 57% | 1012.9 hPa | 0 mm | - | 483 W/m² | - |
| 1777408836 | 23.89° C | 56% | 1013 hPa | 0 mm | - | 660 W/m² | - |
| 1777405817 | 24.44° C | 56% | 1013.2 hPa | 0 mm | - | 829 W/m² | - |
| 1777403417 | 23.89° C | 59% | 1013.5 hPa | 0 mm | - | 676 W/m² | - |
| 1777399818 | 22.78° C | 64% | 1013.7 hPa | 0 mm | - | 672 W/m² | - |
| 1777399219 | 22.78° C | 65% | 1014 hPa | 0 mm | - | 964 W/m² | - |
| 1777394417 | 21.11° C | 68% | 1014.2 hPa | 0 mm | - | 895 W/m² | - |
| 1777390858 | 20° C | 81% | 1014.2 hPa | 0 mm | - | 398 W/m² | - |
| 1777389647 | 17.78° C | 90% | 1014.3 hPa | 0 mm | - | 358 W/m² | - |
| 1777389021 | 17.22° C | 93% | 1013.9 hPa | 0 mm | - | 264 W/m² | - |
| 1777386028 | 15.56° C | 95% | 1013.1 hPa | 0 mm | - | 187 W/m² | - |
| 1777382429 | 14.44° C | 95% | 1012.4 hPa | 0 mm | - | 60 W/m² | - |
| 1777377630 | 13.33° C | 94% | 1011.5 hPa | 0 mm | - | 19 W/m² | - |
| 1777375830 | 13.33° C | 93% | 1011.4 hPa | 0 mm | - | 21 W/m² | - |
* Rain latest hour (hover to see other rain measurements)
** Current wind speed in m/s (hover to see current wind gust speed)